sensor_id;sensor_type;location;lat;lon;timestamp;P1;durP1;ratioP1;P2;durP2;ratioP2
40659;SDS011;26753;45.544;9.232;2022-07-23T00:02:08;8.88;;;5.32;;
40659;SDS011;26753;45.544;9.232;2022-07-23T00:04:34;8.60;;;5.38;;
40659;SDS011;26753;45.544;9.232;2022-07-23T00:06:59;8.75;;;5.53;;
40659;SDS011;26753;45.544;9.232;2022-07-23T00:09:25;9.82;;;5.43;;
40659;SDS011;26753;45.544;9.232;2022-07-23T00:11:51;6.57;;;5.22;;
40659;SDS011;26753;45.544;9.232;2022-07-23T00:14:17;11.57;;;5.43;;
40659;SDS011;26753;45.544;9.232;2022-07-23T00:16:43;7.30;;;5.63;;
40659;SDS011;26753;45.544;9.232;2022-07-23T00:19:08;7.78;;;5.32;;
40659;SDS011;26753;45.544;9.232;2022-07-23T00:21:34;7.68;;;5.43;;
40659;SDS011;26753;45.544;9.232;2022-07-23T00:24:00;7.65;;;5.18;;
40659;SDS011;26753;45.544;9.232;2022-07-23T00:26:26;7.43;;;5.50;;
40659;SDS011;26753;45.544;9.232;2022-07-23T00:28:51;9.20;;;5.13;;
40659;SDS011;26753;45.544;9.232;2022-07-23T00:31:17;7.53;;;5.32;;
40659;SDS011;26753;45.544;9.232;2022-07-23T00:33:43;11.20;;;5.50;;
40659;SDS011;26753;45.544;9.232;2022-07-23T00:36:09;10.25;;;5.35;;
40659;SDS011;26753;45.544;9.232;2022-07-23T00:38:34;8.38;;;5.72;;
40659;SDS011;26753;45.544;9.232;2022-07-23T00:41:00;10.35;;;5.60;;
40659;SDS011;26753;45.544;9.232;2022-07-23T00:43:26;7.47;;;5.10;;
40659;SDS011;26753;45.544;9.232;2022-07-23T00:45:51;9.43;;;6.13;;
40659;SDS011;26753;45.544;9.232;2022-07-23T00:48:17;8.00;;;5.97;;
40659;SDS011;26753;45.544;9.232;2022-07-23T00:50:43;10.02;;;6.55;;
40659;SDS011;26753;45.544;9.232;2022-07-23T00:53:09;10.18;;;6.40;;
40659;SDS011;26753;45.544;9.232;2022-07-23T00:55:35;8.60;;;6.10;;
40659;SDS011;26753;45.544;9.232;2022-07-23T00:58:01;8.38;;;5.68;;
40659;SDS011;26753;45.544;9.232;2022-07-23T01:00:27;8.95;;;5.97;;
40659;SDS011;26753;45.544;9.232;2022-07-23T01:02:53;8.07;;;5.95;;
40659;SDS011;26753;45.544;9.232;2022-07-23T01:05:26;6.55;;;5.38;;
40659;SDS011;26753;45.544;9.232;2022-07-23T01:07:51;8.73;;;6.30;;
40659;SDS011;26753;45.544;9.232;2022-07-23T01:10:17;8.88;;;6.50;;
40659;SDS011;26753;45.544;9.232;2022-07-23T01:13:05;9.02;;;6.50;;
40659;SDS011;26753;45.544;9.232;2022-07-23T01:15:33;11.20;;;6.57;;
40659;SDS011;26753;45.544;9.232;2022-07-23T01:18:01;7.07;;;5.82;;
40659;SDS011;26753;45.544;9.232;2022-07-23T01:20:28;8.77;;;5.80;;
40659;SDS011;26753;45.544;9.232;2022-07-23T01:22:54;8.05;;;5.88;;
40659;SDS011;26753;45.544;9.232;2022-07-23T01:25:21;9.00;;;5.85;;
40659;SDS011;26753;45.544;9.232;2022-07-23T01:27:47;11.50;;;6.72;;
40659;SDS011;26753;45.544;9.232;2022-07-23T01:30:13;10.25;;;6.80;;
40659;SDS011;26753;45.544;9.232;2022-07-23T01:32:39;10.07;;;6.00;;
40659;SDS011;26753;45.544;9.232;2022-07-23T01:35:06;7.40;;;5.78;;
40659;SDS011;26753;45.544;9.232;2022-07-23T01:37:32;7.95;;;5.78;;
40659;SDS011;26753;45.544;9.232;2022-07-23T01:39:58;9.45;;;5.72;;
40659;SDS011;26753;45.544;9.232;2022-07-23T01:42:24;8.40;;;5.65;;
40659;SDS011;26753;45.544;9.232;2022-07-23T01:44:50;8.95;;;6.15;;
40659;SDS011;26753;45.544;9.232;2022-07-23T01:47:16;7.57;;;5.30;;
40659;SDS011;26753;45.544;9.232;2022-07-23T01:49:41;9.85;;;5.60;;
40659;SDS011;26753;45.544;9.232;2022-07-23T01:54:59;7.87;;;5.97;;
40659;SDS011;26753;45.544;9.232;2022-07-23T01:57:27;10.82;;;5.80;;
40659;SDS011;26753;45.544;9.232;2022-07-23T01:59:53;9.32;;;5.55;;
40659;SDS011;26753;45.544;9.232;2022-07-23T02:02:20;10.00;;;5.43;;
40659;SDS011;26753;45.544;9.232;2022-07-23T02:04:45;8.30;;;5.97;;
40659;SDS011;26753;45.544;9.232;2022-07-23T02:07:12;7.95;;;5.03;;
40659;SDS011;26753;45.544;9.232;2022-07-23T02:09:40;16.52;;;6.10;;
40659;SDS011;26753;45.544;9.232;2022-07-23T02:12:06;9.30;;;6.00;;
40659;SDS011;26753;45.544;9.232;2022-07-23T02:14:31;7.68;;;6.53;;
40659;SDS011;26753;45.544;9.232;2022-07-23T02:16:57;10.70;;;8.60;;
40659;SDS011;26753;45.544;9.232;2022-07-23T02:19:23;11.63;;;9.18;;
40659;SDS011;26753;45.544;9.232;2022-07-23T02:21:49;12.60;;;8.23;;
40659;SDS011;26753;45.544;9.232;2022-07-23T02:24:15;13.35;;;8.48;;
40659;SDS011;26753;45.544;9.232;2022-07-23T02:26:41;9.68;;;6.35;;
40659;SDS011;26753;45.544;9.232;2022-07-23T02:29:06;8.95;;;6.25;;
40659;SDS011;26753;45.544;9.232;2022-07-23T02:31:32;9.77;;;6.10;;
40659;SDS011;26753;45.544;9.232;2022-07-23T02:33:58;6.43;;;5.72;;
40659;SDS011;26753;45.544;9.232;2022-07-23T02:36:24;7.10;;;6.18;;
40659;SDS011;26753;45.544;9.232;2022-07-23T02:38:50;12.68;;;7.28;;
40659;SDS011;26753;45.544;9.232;2022-07-23T02:41:16;8.52;;;6.10;;
40659;SDS011;26753;45.544;9.232;2022-07-23T02:43:42;8.15;;;5.75;;
40659;SDS011;26753;45.544;9.232;2022-07-23T02:46:07;9.50;;;6.38;;
40659;SDS011;26753;45.544;9.232;2022-07-23T02:48:33;11.85;;;8.38;;
40659;SDS011;26753;45.544;9.232;2022-07-23T02:50:59;16.35;;;9.55;;
40659;SDS011;26753;45.544;9.232;2022-07-23T02:53:25;10.93;;;7.40;;
40659;SDS011;26753;45.544;9.232;2022-07-23T02:55:51;12.15;;;7.60;;
40659;SDS011;26753;45.544;9.232;2022-07-23T02:58:17;14.63;;;7.60;;
40659;SDS011;26753;45.544;9.232;2022-07-23T03:00:43;9.85;;;6.30;;
40659;SDS011;26753;45.544;9.232;2022-07-23T03:03:09;9.38;;;6.90;;
40659;SDS011;26753;45.544;9.232;2022-07-23T03:05:34;8.77;;;6.10;;
40659;SDS011;26753;45.544;9.232;2022-07-23T03:08:00;9.82;;;6.00;;
40659;SDS011;26753;45.544;9.232;2022-07-23T03:10:26;10.73;;;5.75;;
40659;SDS011;26753;45.544;9.232;2022-07-23T03:12:52;9.07;;;6.57;;
40659;SDS011;26753;45.544;9.232;2022-07-23T03:15:17;13.10;;;8.10;;
40659;SDS011;26753;45.544;9.232;2022-07-23T03:17:43;10.23;;;7.78;;
40659;SDS011;26753;45.544;9.232;2022-07-23T03:20:09;15.57;;;8.45;;
40659;SDS011;26753;45.544;9.232;2022-07-23T03:22:35;14.40;;;8.77;;
40659;SDS011;26753;45.544;9.232;2022-07-23T03:25:01;18.58;;;10.77;;
40659;SDS011;26753;45.544;9.232;2022-07-23T03:27:28;11.70;;;7.00;;
40659;SDS011;26753;45.544;9.232;2022-07-23T03:29:56;9.30;;;6.70;;
40659;SDS011;26753;45.544;9.232;2022-07-23T03:32:23;10.35;;;6.72;;
40659;SDS011;26753;45.544;9.232;2022-07-23T03:34:49;9.10;;;6.47;;
40659;SDS011;26753;45.544;9.232;2022-07-23T03:37:16;8.60;;;6.57;;
40659;SDS011;26753;45.544;9.232;2022-07-23T03:39:43;8.55;;;6.57;;
40659;SDS011;26753;45.544;9.232;2022-07-23T03:42:09;10.60;;;6.85;;
40659;SDS011;26753;45.544;9.232;2022-07-23T03:44:35;10.10;;;6.47;;
40659;SDS011;26753;45.544;9.232;2022-07-23T03:47:04;12.57;;;6.57;;
40659;SDS011;26753;45.544;9.232;2022-07-23T03:49:30;8.55;;;6.70;;
40659;SDS011;26753;45.544;9.232;2022-07-23T03:51:57;8.93;;;6.30;;
40659;SDS011;26753;45.544;9.232;2022-07-23T03:54:23;8.88;;;6.05;;
40659;SDS011;26753;45.544;9.232;2022-07-23T03:56:48;7.88;;;6.30;;
40659;SDS011;26753;45.544;9.232;2022-07-23T03:59:14;15.63;;;6.30;;
40659;SDS011;26753;45.544;9.232;2022-07-23T04:01:40;14.43;;;6.22;;
40659;SDS011;26753;45.544;9.232;2022-07-23T04:04:06;10.20;;;5.57;;
40659;SDS011;26753;45.544;9.232;2022-07-23T04:06:33;9.32;;;5.97;;
40659;SDS011;26753;45.544;9.232;2022-07-23T04:08:59;10.25;;;6.00;;
40659;SDS011;26753;45.544;9.232;2022-07-23T04:11:25;12.15;;;5.75;;
40659;SDS011;26753;45.544;9.232;2022-07-23T04:13:51;13.77;;;6.20;;
40659;SDS011;26753;45.544;9.232;2022-07-23T04:16:17;10.05;;;5.95;;
40659;SDS011;26753;45.544;9.232;2022-07-23T04:18:42;10.32;;;5.75;;
40659;SDS011;26753;45.544;9.232;2022-07-23T04:21:08;11.93;;;5.90;;
40659;SDS011;26753;45.544;9.232;2022-07-23T04:23:34;11.40;;;6.00;;
40659;SDS011;26753;45.544;9.232;2022-07-23T04:26:02;11.32;;;6.10;;
40659;SDS011;26753;45.544;9.232;2022-07-23T04:28:28;9.43;;;5.53;;
40659;SDS011;26753;45.544;9.232;2022-07-23T04:30:55;12.23;;;5.63;;
40659;SDS011;26753;45.544;9.232;2022-07-23T04:33:22;10.15;;;5.40;;
40659;SDS011;26753;45.544;9.232;2022-07-23T04:35:48;10.23;;;5.50;;
40659;SDS011;26753;45.544;9.232;2022-07-23T04:38:14;12.63;;;5.82;;
40659;SDS011;26753;45.544;9.232;2022-07-23T04:40:39;9.73;;;5.63;;
40659;SDS011;26753;45.544;9.232;2022-07-23T04:43:05;13.45;;;5.22;;
40659;SDS011;26753;45.544;9.232;2022-07-23T04:45:31;10.32;;;5.25;;
40659;SDS011;26753;45.544;9.232;2022-07-23T04:47:57;8.35;;;4.95;;
40659;SDS011;26753;45.544;9.232;2022-07-23T04:50:23;9.02;;;5.15;;
40659;SDS011;26753;45.544;9.232;2022-07-23T04:52:51;10.52;;;4.88;;
40659;SDS011;26753;45.544;9.232;2022-07-23T04:55:17;6.90;;;4.60;;
40659;SDS011;26753;45.544;9.232;2022-07-23T04:57:43;6.80;;;4.45;;
40659;SDS011;26753;45.544;9.232;2022-07-23T05:00:08;12.82;;;4.65;;
40659;SDS011;26753;45.544;9.232;2022-07-23T05:02:34;11.90;;;4.68;;
40659;SDS011;26753;45.544;9.232;2022-07-23T05:05:00;11.27;;;5.05;;
40659;SDS011;26753;45.544;9.232;2022-07-23T05:07:26;8.40;;;4.80;;
40659;SDS011;26753;45.544;9.232;2022-07-23T05:09:51;12.35;;;5.00;;
40659;SDS011;26753;45.544;9.232;2022-07-23T05:12:17;12.23;;;5.05;;
40659;SDS011;26753;45.544;9.232;2022-07-23T05:14:43;14.80;;;5.03;;
40659;SDS011;26753;45.544;9.232;2022-07-23T05:17:08;10.60;;;4.68;;
40659;SDS011;26753;45.544;9.232;2022-07-23T05:19:35;10.05;;;4.45;;
40659;SDS011;26753;45.544;9.232;2022-07-23T05:22:01;5.72;;;4.20;;
40659;SDS011;26753;45.544;9.232;2022-07-23T05:24:27;7.32;;;3.92;;
40659;SDS011;26753;45.544;9.232;2022-07-23T05:26:52;7.93;;;4.22;;
40659;SDS011;26753;45.544;9.232;2022-07-23T05:29:18;7.10;;;3.72;;
40659;SDS011;26753;45.544;9.232;2022-07-23T05:31:44;8.57;;;4.00;;
40659;SDS011;26753;45.544;9.232;2022-07-23T05:34:09;7.25;;;3.97;;
40659;SDS011;26753;45.544;9.232;2022-07-23T05:36:35;4.78;;;3.58;;
40659;SDS011;26753;45.544;9.232;2022-07-23T05:39:02;9.18;;;3.83;;
40659;SDS011;26753;45.544;9.232;2022-07-23T05:41:28;5.43;;;3.67;;
40659;SDS011;26753;45.544;9.232;2022-07-23T05:43:53;8.07;;;3.45;;
40659;SDS011;26753;45.544;9.232;2022-07-23T05:46:19;8.50;;;3.25;;
40659;SDS011;26753;45.544;9.232;2022-07-23T05:48:45;5.88;;;3.58;;
40659;SDS011;26753;45.544;9.232;2022-07-23T05:51:18;6.75;;;3.60;;
40659;SDS011;26753;45.544;9.232;2022-07-23T05:53:48;6.10;;;3.17;;
40659;SDS011;26753;45.544;9.232;2022-07-23T05:56:15;5.95;;;3.67;;
40659;SDS011;26753;45.544;9.232;2022-07-23T06:01:28;8.98;;;3.88;;
40659;SDS011;26753;45.544;9.232;2022-07-23T06:03:54;6.93;;;3.38;;
40659;SDS011;26753;45.544;9.232;2022-07-23T06:06:20;5.75;;;3.45;;
40659;SDS011;26753;45.544;9.232;2022-07-23T06:08:45;8.05;;;3.20;;
40659;SDS011;26753;45.544;9.232;2022-07-23T06:11:11;6.72;;;3.30;;
40659;SDS011;26753;45.544;9.232;2022-07-23T06:13:37;9.57;;;3.17;;
40659;SDS011;26753;45.544;9.232;2022-07-23T06:16:02;8.48;;;3.00;;
40659;SDS011;26753;45.544;9.232;2022-07-23T06:18:28;4.95;;;3.00;;
40659;SDS011;26753;45.544;9.232;2022-07-23T06:20:54;3.88;;;2.90;;
40659;SDS011;26753;45.544;9.232;2022-07-23T06:23:20;5.20;;;3.25;;
40659;SDS011;26753;45.544;9.232;2022-07-23T06:25:46;6.07;;;3.10;;
40659;SDS011;26753;45.544;9.232;2022-07-23T06:28:11;7.10;;;3.47;;
40659;SDS011;26753;45.544;9.232;2022-07-23T06:30:37;9.38;;;3.20;;
40659;SDS011;26753;45.544;9.232;2022-07-23T06:33:03;6.43;;;3.17;;
40659;SDS011;26753;45.544;9.232;2022-07-23T06:35:28;8.85;;;3.60;;
40659;SDS011;26753;45.544;9.232;2022-07-23T06:37:54;9.15;;;3.75;;
40659;SDS011;26753;45.544;9.232;2022-07-23T06:40:20;7.65;;;3.70;;
40659;SDS011;26753;45.544;9.232;2022-07-23T06:42:46;6.90;;;3.80;;
40659;SDS011;26753;45.544;9.232;2022-07-23T06:45:11;8.32;;;3.42;;
40659;SDS011;26753;45.544;9.232;2022-07-23T06:47:37;8.60;;;3.90;;
40659;SDS011;26753;45.544;9.232;2022-07-23T06:50:03;7.28;;;3.75;;
40659;SDS011;26753;45.544;9.232;2022-07-23T06:52:30;5.22;;;3.60;;
40659;SDS011;26753;45.544;9.232;2022-07-23T06:54:55;7.20;;;3.85;;
40659;SDS011;26753;45.544;9.232;2022-07-23T06:57:21;9.23;;;4.20;;
40659;SDS011;26753;45.544;9.232;2022-07-23T06:59:47;7.35;;;3.90;;
40659;SDS011;26753;45.544;9.232;2022-07-23T07:02:13;6.57;;;3.85;;
40659;SDS011;26753;45.544;9.232;2022-07-23T07:04:39;4.93;;;3.90;;
40659;SDS011;26753;45.544;9.232;2022-07-23T07:07:04;7.97;;;4.30;;
40659;SDS011;26753;45.544;9.232;2022-07-23T07:09:30;6.68;;;4.13;;
40659;SDS011;26753;45.544;9.232;2022-07-23T07:11:56;8.50;;;4.65;;
40659;SDS011;26753;45.544;9.232;2022-07-23T07:14:21;8.30;;;4.28;;
40659;SDS011;26753;45.544;9.232;2022-07-23T07:16:47;9.05;;;4.03;;
40659;SDS011;26753;45.544;9.232;2022-07-23T07:19:13;8.65;;;3.90;;
40659;SDS011;26753;45.544;9.232;2022-07-23T07:21:40;7.43;;;4.20;;
40659;SDS011;26753;45.544;9.232;2022-07-23T07:24:05;8.13;;;4.22;;
40659;SDS011;26753;45.544;9.232;2022-07-23T07:26:31;4.85;;;3.97;;
40659;SDS011;26753;45.544;9.232;2022-07-23T07:28:57;6.40;;;3.88;;
40659;SDS011;26753;45.544;9.232;2022-07-23T07:31:23;5.43;;;4.05;;
40659;SDS011;26753;45.544;9.232;2022-07-23T07:33:49;6.53;;;4.50;;
40659;SDS011;26753;45.544;9.232;2022-07-23T07:36:15;6.65;;;4.20;;
40659;SDS011;26753;45.544;9.232;2022-07-23T07:38:40;9.20;;;4.10;;
40659;SDS011;26753;45.544;9.232;2022-07-23T07:41:06;8.55;;;4.80;;
40659;SDS011;26753;45.544;9.232;2022-07-23T07:43:33;7.55;;;4.57;;
40659;SDS011;26753;45.544;9.232;2022-07-23T07:45:58;20.33;;;15.50;;
40659;SDS011;26753;45.544;9.232;2022-07-23T07:48:24;12.68;;;6.18;;
40659;SDS011;26753;45.544;9.232;2022-07-23T07:50:50;10.20;;;4.78;;
40659;SDS011;26753;45.544;9.232;2022-07-23T07:53:16;8.43;;;4.70;;
40659;SDS011;26753;45.544;9.232;2022-07-23T07:55:42;6.22;;;4.60;;
40659;SDS011;26753;45.544;9.232;2022-07-23T07:58:08;6.75;;;4.50;;
40659;SDS011;26753;45.544;9.232;2022-07-23T08:00:34;7.03;;;4.25;;
40659;SDS011;26753;45.544;9.232;2022-07-23T08:03:00;6.13;;;4.45;;
40659;SDS011;26753;45.544;9.232;2022-07-23T08:05:26;6.55;;;4.32;;
40659;SDS011;26753;45.544;9.232;2022-07-23T08:07:59;7.75;;;4.50;;
40659;SDS011;26753;45.544;9.232;2022-07-23T08:10:25;7.88;;;4.72;;
40659;SDS011;26753;45.544;9.232;2022-07-23T08:12:55;7.32;;;4.15;;
40659;SDS011;26753;45.544;9.232;2022-07-23T08:15:22;7.10;;;4.47;;
40659;SDS011;26753;45.544;9.232;2022-07-23T08:17:49;7.80;;;4.47;;
40659;SDS011;26753;45.544;9.232;2022-07-23T08:20:15;9.48;;;4.60;;
40659;SDS011;26753;45.544;9.232;2022-07-23T08:22:51;9.23;;;4.60;;
40659;SDS011;26753;45.544;9.232;2022-07-23T08:25:20;10.02;;;5.20;;
40659;SDS011;26753;45.544;9.232;2022-07-23T08:27:57;7.93;;;5.40;;
40659;SDS011;26753;45.544;9.232;2022-07-23T08:30:25;6.78;;;5.07;;
40659;SDS011;26753;45.544;9.232;2022-07-23T08:32:54;6.63;;;4.55;;
40659;SDS011;26753;45.544;9.232;2022-07-23T08:35:22;7.15;;;4.95;;
40659;SDS011;26753;45.544;9.232;2022-07-23T08:37:52;9.10;;;4.70;;
40659;SDS011;26753;45.544;9.232;2022-07-23T08:43:23;6.50;;;4.85;;
40659;SDS011;26753;45.544;9.232;2022-07-23T08:45:52;7.45;;;4.93;;
40659;SDS011;26753;45.544;9.232;2022-07-23T08:48:22;5.72;;;5.13;;
40659;SDS011;26753;45.544;9.232;2022-07-23T08:50:49;7.18;;;4.97;;
40659;SDS011;26753;45.544;9.232;2022-07-23T08:53:20;8.13;;;5.05;;
40659;SDS011;26753;45.544;9.232;2022-07-23T08:55:50;9.23;;;5.38;;
40659;SDS011;26753;45.544;9.232;2022-07-23T08:58:18;7.95;;;5.20;;
40659;SDS011;26753;45.544;9.232;2022-07-23T09:00:44;7.22;;;5.25;;
40659;SDS011;26753;45.544;9.232;2022-07-23T09:05:45;10.95;;;5.22;;
40659;SDS011;26753;45.544;9.232;2022-07-23T09:08:15;8.07;;;5.50;;
40659;SDS011;26753;45.544;9.232;2022-07-23T09:10:56;8.70;;;5.10;;
40659;SDS011;26753;45.544;9.232;2022-07-23T09:15:55;12.63;;;5.75;;
40659;SDS011;26753;45.544;9.232;2022-07-23T09:18:30;10.57;;;5.97;;
40659;SDS011;26753;45.544;9.232;2022-07-23T09:21:14;8.98;;;5.88;;
40659;SDS011;26753;45.544;9.232;2022-07-23T09:24:03;8.40;;;5.40;;
40659;SDS011;26753;45.544;9.232;2022-07-23T09:26:40;11.60;;;5.70;;
40659;SDS011;26753;45.544;9.232;2022-07-23T09:29:12;8.05;;;5.72;;
40659;SDS011;26753;45.544;9.232;2022-07-23T09:34:22;7.97;;;5.60;;
40659;SDS011;26753;45.544;9.232;2022-07-23T09:36:54;10.18;;;5.70;;
40659;SDS011;26753;45.544;9.232;2022-07-23T09:39:27;8.15;;;5.55;;
40659;SDS011;26753;45.544;9.232;2022-07-23T09:41:57;9.10;;;5.80;;
40659;SDS011;26753;45.544;9.232;2022-07-23T09:44:44;9.18;;;5.88;;
40659;SDS011;26753;45.544;9.232;2022-07-23T09:47:11;8.05;;;5.60;;
40659;SDS011;26753;45.544;9.232;2022-07-23T09:49:37;10.27;;;5.95;;
40659;SDS011;26753;45.544;9.232;2022-07-23T09:52:03;10.23;;;5.57;;
40659;SDS011;26753;45.544;9.232;2022-07-23T09:54:30;8.32;;;5.75;;
40659;SDS011;26753;45.544;9.232;2022-07-23T09:57:10;8.73;;;5.85;;
40659;SDS011;26753;45.544;9.232;2022-07-23T09:59:40;9.65;;;6.20;;
40659;SDS011;26753;45.544;9.232;2022-07-23T10:02:08;7.90;;;5.72;;
40659;SDS011;26753;45.544;9.232;2022-07-23T10:04:35;9.77;;;6.32;;
40659;SDS011;26753;45.544;9.232;2022-07-23T10:07:03;8.10;;;6.00;;
40659;SDS011;26753;45.544;9.232;2022-07-23T10:09:32;8.70;;;5.80;;
40659;SDS011;26753;45.544;9.232;2022-07-23T10:12:00;10.63;;;6.25;;
40659;SDS011;26753;45.544;9.232;2022-07-23T10:15:00;8.13;;;6.15;;
40659;SDS011;26753;45.544;9.232;2022-07-23T10:17:30;10.45;;;6.47;;
40659;SDS011;26753;45.544;9.232;2022-07-23T10:19:56;10.48;;;6.05;;
40659;SDS011;26753;45.544;9.232;2022-07-23T10:22:23;11.05;;;6.38;;
40659;SDS011;26753;45.544;9.232;2022-07-23T10:36:09;7.60;;;6.20;;
40659;SDS011;26753;45.544;9.232;2022-07-23T10:41:34;8.57;;;6.30;;
40659;SDS011;26753;45.544;9.232;2022-07-23T10:44:06;8.52;;;6.15;;
40659;SDS011;26753;45.544;9.232;2022-07-23T10:46:31;10.45;;;6.55;;
40659;SDS011;26753;45.544;9.232;2022-07-23T10:54:39;7.72;;;5.95;;
40659;SDS011;26753;45.544;9.232;2022-07-23T10:57:05;8.15;;;6.20;;
40659;SDS011;26753;45.544;9.232;2022-07-23T11:02:37;8.93;;;6.60;;
40659;SDS011;26753;45.544;9.232;2022-07-23T11:05:05;7.07;;;6.00;;
40659;SDS011;26753;45.544;9.232;2022-07-23T11:07:33;7.20;;;5.82;;
40659;SDS011;26753;45.544;9.232;2022-07-23T11:09:59;11.02;;;6.43;;
40659;SDS011;26753;45.544;9.232;2022-07-23T11:15:09;9.77;;;5.68;;
40659;SDS011;26753;45.544;9.232;2022-07-23T11:22:37;9.15;;;5.97;;
40659;SDS011;26753;45.544;9.232;2022-07-23T11:25:04;10.35;;;5.93;;
40659;SDS011;26753;45.544;9.232;2022-07-23T11:30:41;11.50;;;6.60;;
40659;SDS011;26753;45.544;9.232;2022-07-23T11:35:41;10.75;;;6.15;;
40659;SDS011;26753;45.544;9.232;2022-07-23T11:38:14;10.43;;;6.30;;
40659;SDS011;26753;45.544;9.232;2022-07-23T11:40:45;9.15;;;6.20;;
40659;SDS011;26753;45.544;9.232;2022-07-23T11:43:15;12.05;;;6.40;;
40659;SDS011;26753;45.544;9.232;2022-07-23T11:45:42;7.75;;;5.90;;
40659;SDS011;26753;45.544;9.232;2022-07-23T11:48:17;10.20;;;6.18;;
40659;SDS011;26753;45.544;9.232;2022-07-23T11:50:43;9.52;;;6.13;;
40659;SDS011;26753;45.544;9.232;2022-07-23T11:53:09;9.32;;;6.10;;
40659;SDS011;26753;45.544;9.232;2022-07-23T11:55:35;9.38;;;6.07;;
40659;SDS011;26753;45.544;9.232;2022-07-23T11:58:00;9.98;;;6.25;;
40659;SDS011;26753;45.544;9.232;2022-07-23T12:00:28;8.25;;;6.07;;
40659;SDS011;26753;45.544;9.232;2022-07-23T12:02:56;9.02;;;6.50;;
40659;SDS011;26753;45.544;9.232;2022-07-23T12:05:26;7.60;;;6.10;;
40659;SDS011;26753;45.544;9.232;2022-07-23T12:07:54;8.77;;;5.72;;
40659;SDS011;26753;45.544;9.232;2022-07-23T12:10:25;10.32;;;5.97;;
40659;SDS011;26753;45.544;9.232;2022-07-23T12:12:56;8.18;;;6.10;;
40659;SDS011;26753;45.544;9.232;2022-07-23T12:17:52;10.10;;;5.85;;
40659;SDS011;26753;45.544;9.232;2022-07-23T12:20:23;10.13;;;6.00;;
40659;SDS011;26753;45.544;9.232;2022-07-23T12:22:52;6.68;;;5.43;;
40659;SDS011;26753;45.544;9.232;2022-07-23T12:25:22;11.30;;;5.90;;
40659;SDS011;26753;45.544;9.232;2022-07-23T12:28:00;8.70;;;5.80;;
40659;SDS011;26753;45.544;9.232;2022-07-23T12:30:35;8.32;;;5.70;;
40659;SDS011;26753;45.544;9.232;2022-07-23T12:33:02;9.88;;;5.55;;
40659;SDS011;26753;45.544;9.232;2022-07-23T12:35:36;7.65;;;5.55;;
40659;SDS011;26753;45.544;9.232;2022-07-23T12:38:06;9.32;;;6.00;;
40659;SDS011;26753;45.544;9.232;2022-07-23T12:43:07;8.68;;;5.82;;
40659;SDS011;26753;45.544;9.232;2022-07-23T12:48:26;13.80;;;5.55;;
40659;SDS011;26753;45.544;9.232;2022-07-23T12:51:02;10.18;;;5.63;;
40659;SDS011;26753;45.544;9.232;2022-07-23T12:53:32;10.85;;;9.40;;
40659;SDS011;26753;45.544;9.232;2022-07-23T12:55:59;14.35;;;10.77;;
40659;SDS011;26753;45.544;9.232;2022-07-23T12:58:26;6.55;;;5.63;;
40659;SDS011;26753;45.544;9.232;2022-07-23T13:01:04;7.38;;;5.47;;
40659;SDS011;26753;45.544;9.232;2022-07-23T13:05:58;8.80;;;5.95;;
40659;SDS011;26753;45.544;9.232;2022-07-23T13:08:25;8.07;;;5.65;;
40659;SDS011;26753;45.544;9.232;2022-07-23T13:10:52;9.65;;;6.70;;
40659;SDS011;26753;45.544;9.232;2022-07-23T13:13:26;9.75;;;5.90;;
40659;SDS011;26753;45.544;9.232;2022-07-23T13:15:55;9.82;;;5.93;;
40659;SDS011;26753;45.544;9.232;2022-07-23T13:18:22;7.63;;;5.85;;
40659;SDS011;26753;45.544;9.232;2022-07-23T13:20:48;8.38;;;5.47;;
40659;SDS011;26753;45.544;9.232;2022-07-23T13:23:14;8.25;;;5.60;;
40659;SDS011;26753;45.544;9.232;2022-07-23T13:25:40;9.45;;;5.97;;
40659;SDS011;26753;45.544;9.232;2022-07-23T13:28:07;7.88;;;6.20;;
40659;SDS011;26753;45.544;9.232;2022-07-23T13:30:33;7.53;;;5.50;;
40659;SDS011;26753;45.544;9.232;2022-07-23T13:32:59;7.75;;;5.40;;
40659;SDS011;26753;45.544;9.232;2022-07-23T13:35:26;9.13;;;6.05;;
40659;SDS011;26753;45.544;9.232;2022-07-23T13:37:52;8.70;;;5.55;;
40659;SDS011;26753;45.544;9.232;2022-07-23T13:40:17;12.00;;;5.72;;
40659;SDS011;26753;45.544;9.232;2022-07-23T13:42:44;7.97;;;6.28;;
40659;SDS011;26753;45.544;9.232;2022-07-23T13:45:09;9.52;;;5.93;;
40659;SDS011;26753;45.544;9.232;2022-07-23T13:47:35;7.90;;;5.47;;
40659;SDS011;26753;45.544;9.232;2022-07-23T13:50:01;11.15;;;5.50;;
40659;SDS011;26753;45.544;9.232;2022-07-23T13:52:26;7.75;;;5.32;;
40659;SDS011;26753;45.544;9.232;2022-07-23T13:54:52;7.05;;;5.40;;
40659;SDS011;26753;45.544;9.232;2022-07-23T13:57:18;7.40;;;5.90;;
40659;SDS011;26753;45.544;9.232;2022-07-23T13:59:43;9.18;;;5.70;;
40659;SDS011;26753;45.544;9.232;2022-07-23T14:02:09;8.65;;;5.63;;
40659;SDS011;26753;45.544;9.232;2022-07-23T14:04:36;7.40;;;5.55;;
40659;SDS011;26753;45.544;9.232;2022-07-23T14:07:04;6.90;;;5.43;;
40659;SDS011;26753;45.544;9.232;2022-07-23T14:09:30;6.82;;;5.35;;
40659;SDS011;26753;45.544;9.232;2022-07-23T14:11:58;8.05;;;5.60;;
40659;SDS011;26753;45.544;9.232;2022-07-23T14:14:24;5.80;;;5.20;;
40659;SDS011;26753;45.544;9.232;2022-07-23T14:16:50;8.75;;;5.50;;
40659;SDS011;26753;45.544;9.232;2022-07-23T14:19:20;8.23;;;5.60;;
40659;SDS011;26753;45.544;9.232;2022-07-23T14:21:46;7.30;;;5.50;;
40659;SDS011;26753;45.544;9.232;2022-07-23T14:24:13;11.90;;;5.40;;
40659;SDS011;26753;45.544;9.232;2022-07-23T14:26:40;8.18;;;5.70;;
40659;SDS011;26753;45.544;9.232;2022-07-23T14:29:06;9.88;;;5.88;;
40659;SDS011;26753;45.544;9.232;2022-07-23T14:31:31;6.70;;;5.50;;
40659;SDS011;26753;45.544;9.232;2022-07-23T14:33:57;8.13;;;5.63;;
40659;SDS011;26753;45.544;9.232;2022-07-23T14:36:24;8.57;;;5.95;;
40659;SDS011;26753;45.544;9.232;2022-07-23T14:38:50;8.15;;;5.10;;
40659;SDS011;26753;45.544;9.232;2022-07-23T14:41:16;7.97;;;5.75;;
40659;SDS011;26753;45.544;9.232;2022-07-23T14:43:41;11.70;;;5.57;;
40659;SDS011;26753;45.544;9.232;2022-07-23T14:46:07;8.40;;;5.57;;
40659;SDS011;26753;45.544;9.232;2022-07-23T14:48:33;7.38;;;5.65;;
40659;SDS011;26753;45.544;9.232;2022-07-23T14:50:58;6.38;;;5.35;;
40659;SDS011;26753;45.544;9.232;2022-07-23T14:53:24;8.23;;;5.60;;
40659;SDS011;26753;45.544;9.232;2022-07-23T14:55:50;6.63;;;5.18;;
40659;SDS011;26753;45.544;9.232;2022-07-23T14:58:15;6.80;;;5.78;;
40659;SDS011;26753;45.544;9.232;2022-07-23T15:00:43;7.78;;;5.10;;
40659;SDS011;26753;45.544;9.232;2022-07-23T15:03:09;8.63;;;5.57;;
40659;SDS011;26753;45.544;9.232;2022-07-23T15:05:35;11.13;;;5.80;;
40659;SDS011;26753;45.544;9.232;2022-07-23T15:08:00;8.38;;;5.43;;
40659;SDS011;26753;45.544;9.232;2022-07-23T15:10:26;8.68;;;5.90;;
40659;SDS011;26753;45.544;9.232;2022-07-23T15:12:52;7.50;;;5.20;;
40659;SDS011;26753;45.544;9.232;2022-07-23T15:15:17;9.05;;;4.95;;
40659;SDS011;26753;45.544;9.232;2022-07-23T15:17:43;7.00;;;5.07;;
40659;SDS011;26753;45.544;9.232;2022-07-23T15:20:09;6.93;;;5.03;;
40659;SDS011;26753;45.544;9.232;2022-07-23T15:22:35;10.07;;;4.72;;
40659;SDS011;26753;45.544;9.232;2022-07-23T15:25:01;7.20;;;5.07;;
40659;SDS011;26753;45.544;9.232;2022-07-23T15:27:27;8.38;;;5.10;;
40659;SDS011;26753;45.544;9.232;2022-07-23T15:29:52;6.45;;;5.30;;
40659;SDS011;26753;45.544;9.232;2022-07-23T15:32:18;6.22;;;5.50;;
40659;SDS011;26753;45.544;9.232;2022-07-23T15:34:44;7.40;;;5.05;;
40659;SDS011;26753;45.544;9.232;2022-07-23T15:37:10;8.43;;;5.50;;
40659;SDS011;26753;45.544;9.232;2022-07-23T15:39:35;8.23;;;5.30;;
40659;SDS011;26753;45.544;9.232;2022-07-23T15:42:01;9.57;;;5.35;;
40659;SDS011;26753;45.544;9.232;2022-07-23T15:44:28;8.30;;;5.18;;
40659;SDS011;26753;45.544;9.232;2022-07-23T15:46:54;8.90;;;5.13;;